sensor_id;sensor_type;location;lat;lon;timestamp;temperature;humidity
70928;SHT31;58587;53.034;18.576;2024-02-21T00:02:02;5.51;95.92
70928;SHT31;58587;53.034;18.576;2024-02-21T00:04:27;5.56;95.96
70928;SHT31;58587;53.034;18.576;2024-02-21T00:06:53;5.53;95.94
70928;SHT31;58587;53.034;18.576;2024-02-21T00:09:18;5.54;95.93
70928;SHT31;58587;53.034;18.576;2024-02-21T00:11:44;5.60;95.92
70928;SHT31;58587;53.034;18.576;2024-02-21T00:14:10;5.59;95.98
70928;SHT31;58587;53.034;18.576;2024-02-21T00:16:35;5.59;95.96
70928;SHT31;58587;53.034;18.576;2024-02-21T00:19:01;5.53;95.97
70928;SHT31;58587;53.034;18.576;2024-02-21T00:21:26;5.51;95.88
70928;SHT31;58587;53.034;18.576;2024-02-21T00:23:52;5.57;96.04
70928;SHT31;58587;53.034;18.576;2024-02-21T00:26:17;5.61;95.99
70928;SHT31;58587;53.034;18.576;2024-02-21T00:28:43;5.60;96.05
70928;SHT31;58587;53.034;18.576;2024-02-21T00:31:08;5.59;96.04
70928;SHT31;58587;53.034;18.576;2024-02-21T00:33:34;5.56;96.06
70928;SHT31;58587;53.034;18.576;2024-02-21T00:35:59;5.59;96.10
70928;SHT31;58587;53.034;18.576;2024-02-21T00:38:24;5.60;96.15
70928;SHT31;58587;53.034;18.576;2024-02-21T00:40:50;5.59;96.18
70928;SHT31;58587;53.034;18.576;2024-02-21T00:43:15;5.61;96.20
70928;SHT31;58587;53.034;18.576;2024-02-21T00:45:40;5.63;96.27
70928;SHT31;58587;53.034;18.576;2024-02-21T00:48:06;5.60;96.13
70928;SHT31;58587;53.034;18.576;2024-02-21T00:50:32;5.61;96.51
70928;SHT31;58587;53.034;18.576;2024-02-21T00:52:57;5.64;96.55
70928;SHT31;58587;53.034;18.576;2024-02-21T00:55:22;5.66;96.47
70928;SHT31;58587;53.034;18.576;2024-02-21T00:57:48;5.67;96.47
70928;SHT31;58587;53.034;18.576;2024-02-21T01:00:13;5.69;96.65
70928;SHT31;58587;53.034;18.576;2024-02-21T01:02:39;5.69;96.57
70928;SHT31;58587;53.034;18.576;2024-02-21T01:05:04;5.69;96.44
70928;SHT31;58587;53.034;18.576;2024-02-21T01:07:30;5.67;96.47
70928;SHT31;58587;53.034;18.576;2024-02-21T01:09:55;5.73;96.51
70928;SHT31;58587;53.034;18.576;2024-02-21T01:12:21;5.71;96.43
70928;SHT31;58587;53.034;18.576;2024-02-21T01:14:46;5.71;96.55
70928;SHT31;58587;53.034;18.576;2024-02-21T01:17:12;5.73;96.54
70928;SHT31;58587;53.034;18.576;2024-02-21T01:19:37;5.73;96.47
70928;SHT31;58587;53.034;18.576;2024-02-21T01:22:03;5.73;96.41
70928;SHT31;58587;53.034;18.576;2024-02-21T01:24:29;5.75;96.39
70928;SHT31;58587;53.034;18.576;2024-02-21T01:26:54;5.74;96.38
70928;SHT31;58587;53.034;18.576;2024-02-21T01:29:20;5.66;96.42
70928;SHT31;58587;53.034;18.576;2024-02-21T01:31:45;5.67;96.54
70928;SHT31;58587;53.034;18.576;2024-02-21T01:34:10;5.67;96.48
70928;SHT31;58587;53.034;18.576;2024-02-21T01:36:36;5.67;96.50
70928;SHT31;58587;53.034;18.576;2024-02-21T01:39:01;5.66;96.36
70928;SHT31;58587;53.034;18.576;2024-02-21T01:41:29;5.66;96.31
70928;SHT31;58587;53.034;18.576;2024-02-21T01:43:55;5.69;96.29
70928;SHT31;58587;53.034;18.576;2024-02-21T01:46:20;5.69;96.39
70928;SHT31;58587;53.034;18.576;2024-02-21T01:48:46;5.69;96.34
70928;SHT31;58587;53.034;18.576;2024-02-21T01:51:11;5.70;96.27
70928;SHT31;58587;53.034;18.576;2024-02-21T01:53:42;5.70;96.27
70928;SHT31;58587;53.034;18.576;2024-02-21T01:56:08;5.71;96.24
70928;SHT31;58587;53.034;18.576;2024-02-21T01:58:36;5.67;96.29
70928;SHT31;58587;53.034;18.576;2024-02-21T02:01:02;5.67;96.29
70928;SHT31;58587;53.034;18.576;2024-02-21T02:03:28;5.64;96.38
70928;SHT31;58587;53.034;18.576;2024-02-21T02:05:55;5.67;96.49
70928;SHT31;58587;53.034;18.576;2024-02-21T02:08:20;5.63;96.58
70928;SHT31;58587;53.034;18.576;2024-02-21T02:10:47;5.69;96.58
70928;SHT31;58587;53.034;18.576;2024-02-21T02:13:12;5.69;96.55
70928;SHT31;58587;53.034;18.576;2024-02-21T02:15:45;5.70;96.60
70928;SHT31;58587;53.034;18.576;2024-02-21T02:18:12;5.73;96.54
70928;SHT31;58587;53.034;18.576;2024-02-21T02:20:37;5.73;96.51
70928;SHT31;58587;53.034;18.576;2024-02-21T02:23:11;5.75;96.53
70928;SHT31;58587;53.034;18.576;2024-02-21T02:25:37;5.75;96.53
70928;SHT31;58587;53.034;18.576;2024-02-21T02:28:08;5.75;96.56
70928;SHT31;58587;53.034;18.576;2024-02-21T02:30:35;5.75;96.56
70928;SHT31;58587;53.034;18.576;2024-02-21T02:33:02;5.77;96.58
70928;SHT31;58587;53.034;18.576;2024-02-21T02:35:27;5.77;96.69
70928;SHT31;58587;53.034;18.576;2024-02-21T02:37:52;5.75;96.55
70928;SHT31;58587;53.034;18.576;2024-02-21T02:40:18;5.75;96.63
70928;SHT31;58587;53.034;18.576;2024-02-21T02:42:44;5.77;96.67
70928;SHT31;58587;53.034;18.576;2024-02-21T02:45:09;5.77;96.66
70928;SHT31;58587;53.034;18.576;2024-02-21T02:47:35;5.75;96.61
70928;SHT31;58587;53.034;18.576;2024-02-21T02:50:00;5.77;96.57
70928;SHT31;58587;53.034;18.576;2024-02-21T02:52:26;5.77;96.54
70928;SHT31;58587;53.034;18.576;2024-02-21T02:54:51;5.80;96.65
70928;SHT31;58587;53.034;18.576;2024-02-21T02:57:18;5.77;96.52
70928;SHT31;58587;53.034;18.576;2024-02-21T02:59:50;5.80;96.51
70928;SHT31;58587;53.034;18.576;2024-02-21T03:02:15;5.81;96.47
70928;SHT31;58587;53.034;18.576;2024-02-21T03:04:41;5.77;96.41
70928;SHT31;58587;53.034;18.576;2024-02-21T03:07:06;5.83;96.37
70928;SHT31;58587;53.034;18.576;2024-02-21T03:09:32;5.87;96.40
70928;SHT31;58587;53.034;18.576;2024-02-21T03:11:57;5.80;96.37
70928;SHT31;58587;53.034;18.576;2024-02-21T03:14:28;5.81;96.51
70928;SHT31;58587;53.034;18.576;2024-02-21T03:16:53;5.78;96.49
70928;SHT31;58587;53.034;18.576;2024-02-21T03:19:18;5.83;96.61
70928;SHT31;58587;53.034;18.576;2024-02-21T03:21:44;5.80;96.38
70928;SHT31;58587;53.034;18.576;2024-02-21T03:24:09;5.84;96.49
70928;SHT31;58587;53.034;18.576;2024-02-21T03:26:34;5.86;96.27
70928;SHT31;58587;53.034;18.576;2024-02-21T03:29:00;5.83;96.39
70928;SHT31;58587;53.034;18.576;2024-02-21T03:31:25;5.83;96.35
70928;SHT31;58587;53.034;18.576;2024-02-21T03:33:50;5.87;96.30
70928;SHT31;58587;53.034;18.576;2024-02-21T03:36:16;5.86;96.35
70928;SHT31;58587;53.034;18.576;2024-02-21T03:38:41;5.81;96.46
70928;SHT31;58587;53.034;18.576;2024-02-21T03:41:06;5.86;96.45
70928;SHT31;58587;53.034;18.576;2024-02-21T03:43:32;5.84;96.32
70928;SHT31;58587;53.034;18.576;2024-02-21T03:45:57;5.89;96.26
70928;SHT31;58587;53.034;18.576;2024-02-21T03:48:23;5.89;96.29
70928;SHT31;58587;53.034;18.576;2024-02-21T03:50:48;5.90;96.27
70928;SHT31;58587;53.034;18.576;2024-02-21T03:53:13;5.93;96.29
70928;SHT31;58587;53.034;18.576;2024-02-21T03:55:39;5.89;96.35
70928;SHT31;58587;53.034;18.576;2024-02-21T03:58:04;5.95;96.39
70928;SHT31;58587;53.034;18.576;2024-02-21T04:00:29;5.94;96.27
70928;SHT31;58587;53.034;18.576;2024-02-21T04:02:55;5.94;96.25
70928;SHT31;58587;53.034;18.576;2024-02-21T04:05:21;5.94;96.31
70928;SHT31;58587;53.034;18.576;2024-02-21T04:07:46;5.95;96.29
70928;SHT31;58587;53.034;18.576;2024-02-21T04:10:12;5.94;96.44
70928;SHT31;58587;53.034;18.576;2024-02-21T04:12:37;5.94;96.42
70928;SHT31;58587;53.034;18.576;2024-02-21T04:15:04;5.97;96.45
70928;SHT31;58587;53.034;18.576;2024-02-21T04:17:29;5.98;96.42
70928;SHT31;58587;53.034;18.576;2024-02-21T04:20:04;5.97;96.35
70928;SHT31;58587;53.034;18.576;2024-02-21T04:22:31;5.93;96.37
70928;SHT31;58587;53.034;18.576;2024-02-21T04:24:59;5.97;96.46
70928;SHT31;58587;53.034;18.576;2024-02-21T04:27:24;5.94;96.41
70928;SHT31;58587;53.034;18.576;2024-02-21T04:29:49;5.97;96.42
70928;SHT31;58587;53.034;18.576;2024-02-21T04:32:15;6.00;96.39
70928;SHT31;58587;53.034;18.576;2024-02-21T04:34:41;6.01;96.40
70928;SHT31;58587;53.034;18.576;2024-02-21T04:37:06;6.01;96.51
70928;SHT31;58587;53.034;18.576;2024-02-21T04:39:32;6.00;96.57
70928;SHT31;58587;53.034;18.576;2024-02-21T04:41:57;6.00;96.54
70928;SHT31;58587;53.034;18.576;2024-02-21T04:44:22;6.01;96.57
70928;SHT31;58587;53.034;18.576;2024-02-21T04:46:48;6.00;96.56
70928;SHT31;58587;53.034;18.576;2024-02-21T04:49:13;5.98;96.61
70928;SHT31;58587;53.034;18.576;2024-02-21T04:51:40;6.00;96.56
70928;SHT31;58587;53.034;18.576;2024-02-21T04:54:06;6.00;96.56
70928;SHT31;58587;53.034;18.576;2024-02-21T04:56:31;6.00;96.73
70928;SHT31;58587;53.034;18.576;2024-02-21T04:58:56;6.02;96.83
70928;SHT31;58587;53.034;18.576;2024-02-21T05:01:22;6.04;96.70
70928;SHT31;58587;53.034;18.576;2024-02-21T05:03:47;6.01;96.75
70928;SHT31;58587;53.034;18.576;2024-02-21T05:06:12;6.00;96.80
70928;SHT31;58587;53.034;18.576;2024-02-21T05:08:38;6.04;96.80
70928;SHT31;58587;53.034;18.576;2024-02-21T05:11:03;6.05;96.68
70928;SHT31;58587;53.034;18.576;2024-02-21T05:13:28;6.04;96.75
70928;SHT31;58587;53.034;18.576;2024-02-21T05:15:54;6.04;96.73
70928;SHT31;58587;53.034;18.576;2024-02-21T05:18:19;6.05;96.76
70928;SHT31;58587;53.034;18.576;2024-02-21T05:20:45;6.04;96.89
70928;SHT31;58587;53.034;18.576;2024-02-21T05:23:11;6.02;96.98
70928;SHT31;58587;53.034;18.576;2024-02-21T05:25:36;6.00;96.92
70928;SHT31;58587;53.034;18.576;2024-02-21T05:28:02;6.04;96.83
70928;SHT31;58587;53.034;18.576;2024-02-21T05:30:28;6.04;96.76
70928;SHT31;58587;53.034;18.576;2024-02-21T05:32:54;6.02;96.86
70928;SHT31;58587;53.034;18.576;2024-02-21T05:35:19;6.00;96.76
70928;SHT31;58587;53.034;18.576;2024-02-21T05:37:49;6.00;96.84
70928;SHT31;58587;53.034;18.576;2024-02-21T05:40:17;6.01;96.78
70928;SHT31;58587;53.034;18.576;2024-02-21T05:42:43;6.01;96.74
70928;SHT31;58587;53.034;18.576;2024-02-21T05:45:08;6.01;96.83
70928;SHT31;58587;53.034;18.576;2024-02-21T05:47:36;5.98;97.01
70928;SHT31;58587;53.034;18.576;2024-02-21T05:50:02;5.97;96.93
70928;SHT31;58587;53.034;18.576;2024-02-21T05:52:27;5.97;96.98
70928;SHT31;58587;53.034;18.576;2024-02-21T05:54:53;5.98;96.90
70928;SHT31;58587;53.034;18.576;2024-02-21T05:57:18;5.98;96.92
70928;SHT31;58587;53.034;18.576;2024-02-21T05:59:44;6.00;96.80
70928;SHT31;58587;53.034;18.576;2024-02-21T06:02:09;5.95;96.87
70928;SHT31;58587;53.034;18.576;2024-02-21T06:04:35;5.97;96.94
70928;SHT31;58587;53.034;18.576;2024-02-21T06:07:01;5.93;96.98
70928;SHT31;58587;53.034;18.576;2024-02-21T06:09:27;5.93;97.12
70928;SHT31;58587;53.034;18.576;2024-02-21T06:11:52;5.93;97.15
70928;SHT31;58587;53.034;18.576;2024-02-21T06:14:19;5.90;97.21
70928;SHT31;58587;53.034;18.576;2024-02-21T06:16:44;5.91;97.19
70928;SHT31;58587;53.034;18.576;2024-02-21T06:19:10;5.91;97.11
70928;SHT31;58587;53.034;18.576;2024-02-21T06:21:36;5.94;97.13
70928;SHT31;58587;53.034;18.576;2024-02-21T06:24:02;5.93;97.18
70928;SHT31;58587;53.034;18.576;2024-02-21T06:26:27;5.95;97.20
70928;SHT31;58587;53.034;18.576;2024-02-21T06:28:52;5.93;97.18
70928;SHT31;58587;53.034;18.576;2024-02-21T06:31:18;5.94;97.18
70928;SHT31;58587;53.034;18.576;2024-02-21T06:33:43;5.93;97.20
70928;SHT31;58587;53.034;18.576;2024-02-21T06:36:08;5.95;97.29
70928;SHT31;58587;53.034;18.576;2024-02-21T06:38:34;5.93;97.20
70928;SHT31;58587;53.034;18.576;2024-02-21T06:40:59;5.97;97.31
70928;SHT31;58587;53.034;18.576;2024-02-21T06:43:26;5.97;97.24
70928;SHT31;58587;53.034;18.576;2024-02-21T06:45:51;6.00;97.29
70928;SHT31;58587;53.034;18.576;2024-02-21T06:48:17;6.01;97.32
70928;SHT31;58587;53.034;18.576;2024-02-21T06:50:44;6.01;97.21
70928;SHT31;58587;53.034;18.576;2024-02-21T06:53:09;6.04;97.26
70928;SHT31;58587;53.034;18.576;2024-02-21T06:55:35;6.07;97.22
70928;SHT31;58587;53.034;18.576;2024-02-21T06:58:00;6.05;97.07
70928;SHT31;58587;53.034;18.576;2024-02-21T07:00:28;6.05;96.94
70928;SHT31;58587;53.034;18.576;2024-02-21T07:02:53;6.02;97.12
70928;SHT31;58587;53.034;18.576;2024-02-21T07:05:18;6.05;97.23
70928;SHT31;58587;53.034;18.576;2024-02-21T07:07:44;6.04;97.25
70928;SHT31;58587;53.034;18.576;2024-02-21T07:10:09;6.04;97.16
70928;SHT31;58587;53.034;18.576;2024-02-21T07:12:36;6.12;97.28
70928;SHT31;58587;53.034;18.576;2024-02-21T07:15:04;6.08;97.08
70928;SHT31;58587;53.034;18.576;2024-02-21T07:17:29;6.10;97.03
70928;SHT31;58587;53.034;18.576;2024-02-21T07:19:55;6.07;97.10
70928;SHT31;58587;53.034;18.576;2024-02-21T07:22:22;6.07;97.09
70928;SHT31;58587;53.034;18.576;2024-02-21T07:24:47;6.15;97.00
70928;SHT31;58587;53.034;18.576;2024-02-21T07:27:15;6.12;97.14
70928;SHT31;58587;53.034;18.576;2024-02-21T07:29:40;6.17;97.03
70928;SHT31;58587;53.034;18.576;2024-02-21T07:32:05;6.17;97.00
70928;SHT31;58587;53.034;18.576;2024-02-21T07:34:31;6.17;97.09
70928;SHT31;58587;53.034;18.576;2024-02-21T07:36:57;6.22;96.65
70928;SHT31;58587;53.034;18.576;2024-02-21T07:39:22;6.22;96.85
70928;SHT31;58587;53.034;18.576;2024-02-21T07:41:47;6.25;97.05
70928;SHT31;58587;53.034;18.576;2024-02-21T07:44:14;6.25;96.82
70928;SHT31;58587;53.034;18.576;2024-02-21T07:46:40;6.25;96.90
70928;SHT31;58587;53.034;18.576;2024-02-21T07:49:05;6.28;96.95
70928;SHT31;58587;53.034;18.576;2024-02-21T07:51:30;6.24;96.89
70928;SHT31;58587;53.034;18.576;2024-02-21T07:53:56;6.26;96.84
70928;SHT31;58587;53.034;18.576;2024-02-21T07:56:21;6.25;96.94
70928;SHT31;58587;53.034;18.576;2024-02-21T07:58:47;6.28;96.84
70928;SHT31;58587;53.034;18.576;2024-02-21T08:01:18;6.32;96.77
70928;SHT31;58587;53.034;18.576;2024-02-21T08:03:43;6.29;96.85
70928;SHT31;58587;53.034;18.576;2024-02-21T08:06:12;6.31;96.84
70928;SHT31;58587;53.034;18.576;2024-02-21T08:08:37;6.32;96.77
70928;SHT31;58587;53.034;18.576;2024-02-21T08:11:03;6.35;96.52
70928;SHT31;58587;53.034;18.576;2024-02-21T08:13:28;6.36;96.67
70928;SHT31;58587;53.034;18.576;2024-02-21T08:15:54;6.32;96.79
70928;SHT31;58587;53.034;18.576;2024-02-21T08:18:19;6.33;96.65
70928;SHT31;58587;53.034;18.576;2024-02-21T08:20:45;6.38;96.52
70928;SHT31;58587;53.034;18.576;2024-02-21T08:23:10;6.42;96.42
70928;SHT31;58587;53.034;18.576;2024-02-21T08:25:35;6.43;96.45
70928;SHT31;58587;53.034;18.576;2024-02-21T08:28:01;6.43;96.43
70928;SHT31;58587;53.034;18.576;2024-02-21T08:30:26;6.49;96.38
70928;SHT31;58587;53.034;18.576;2024-02-21T08:32:52;6.53;96.60
70928;SHT31;58587;53.034;18.576;2024-02-21T08:35:19;6.57;96.49
70928;SHT31;58587;53.034;18.576;2024-02-21T08:37:46;6.57;96.32
70928;SHT31;58587;53.034;18.576;2024-02-21T08:40:13;6.61;96.15
70928;SHT31;58587;53.034;18.576;2024-02-21T08:42:39;6.61;96.18
70928;SHT31;58587;53.034;18.576;2024-02-21T08:45:05;6.63;96.17
70928;SHT31;58587;53.034;18.576;2024-02-21T08:47:30;6.68;95.97
70928;SHT31;58587;53.034;18.576;2024-02-21T08:49:56;6.69;96.03
70928;SHT31;58587;53.034;18.576;2024-02-21T08:52:21;6.68;96.19
70928;SHT31;58587;53.034;18.576;2024-02-21T08:54:46;6.73;96.30
70928;SHT31;58587;53.034;18.576;2024-02-21T08:57:12;6.76;96.18
70928;SHT31;58587;53.034;18.576;2024-02-21T08:59:39;6.76;96.27
70928;SHT31;58587;53.034;18.576;2024-02-21T09:02:05;6.76;96.11
70928;SHT31;58587;53.034;18.576;2024-02-21T09:04:32;6.73;96.37
70928;SHT31;58587;53.034;18.576;2024-02-21T09:06:58;6.75;96.38
70928;SHT31;58587;53.034;18.576;2024-02-21T09:09:23;6.76;96.35
70928;SHT31;58587;53.034;18.576;2024-02-21T09:11:49;6.76;96.44
70928;SHT31;58587;53.034;18.576;2024-02-21T09:14:14;6.79;96.48
70928;SHT31;58587;53.034;18.576;2024-02-21T09:16:40;6.76;96.28
70928;SHT31;58587;53.034;18.576;2024-02-21T09:19:05;6.79;96.56
70928;SHT31;58587;53.034;18.576;2024-02-21T09:21:31;6.76;96.26
70928;SHT31;58587;53.034;18.576;2024-02-21T09:23:56;6.76;96.41
70928;SHT31;58587;53.034;18.576;2024-02-21T09:26:21;6.73;96.47
70928;SHT31;58587;53.034;18.576;2024-02-21T09:28:47;6.71;96.52
70928;SHT31;58587;53.034;18.576;2024-02-21T09:31:12;6.72;96.61
70928;SHT31;58587;53.034;18.576;2024-02-21T09:33:38;6.72;96.41
70928;SHT31;58587;53.034;18.576;2024-02-21T09:36:04;6.66;96.57
70928;SHT31;58587;53.034;18.576;2024-02-21T09:38:31;6.72;96.81
70928;SHT31;58587;53.034;18.576;2024-02-21T09:43:57;6.76;96.53
70928;SHT31;58587;53.034;18.576;2024-02-21T09:46:44;6.77;96.55
70928;SHT31;58587;53.034;18.576;2024-02-21T09:49:33;6.76;96.50
70928;SHT31;58587;53.034;18.576;2024-02-21T09:52:02;6.82;96.55
70928;SHT31;58587;53.034;18.576;2024-02-21T09:54:29;6.82;96.24
70928;SHT31;58587;53.034;18.576;2024-02-21T09:56:57;6.83;96.39
70928;SHT31;58587;53.034;18.576;2024-02-21T09:59:24;6.86;96.38
70928;SHT31;58587;53.034;18.576;2024-02-21T10:01:49;6.85;96.28
70928;SHT31;58587;53.034;18.576;2024-02-21T10:04:16;6.89;96.36
70928;SHT31;58587;53.034;18.576;2024-02-21T10:06:41;6.92;96.38
70928;SHT31;58587;53.034;18.576;2024-02-21T10:09:07;6.92;96.15
70928;SHT31;58587;53.034;18.576;2024-02-21T10:11:32;6.89;96.33
70928;SHT31;58587;53.034;18.576;2024-02-21T10:14:05;6.92;96.40
70928;SHT31;58587;53.034;18.576;2024-02-21T10:16:30;6.92;96.33
70928;SHT31;58587;53.034;18.576;2024-02-21T10:18:56;6.90;96.51
70928;SHT31;58587;53.034;18.576;2024-02-21T10:21:21;6.95;96.34
70928;SHT31;58587;53.034;18.576;2024-02-21T10:23:49;6.92;96.24
70928;SHT31;58587;53.034;18.576;2024-02-21T10:26:18;6.99;96.02
70928;SHT31;58587;53.034;18.576;2024-02-21T10:28:44;6.97;96.21
70928;SHT31;58587;53.034;18.576;2024-02-21T10:31:11;6.97;96.33
70928;SHT31;58587;53.034;18.576;2024-02-21T10:33:54;6.97;96.42
70928;SHT31;58587;53.034;18.576;2024-02-21T10:36:19;7.01;96.50
70928;SHT31;58587;53.034;18.576;2024-02-21T10:38:44;7.00;96.56
70928;SHT31;58587;53.034;18.576;2024-02-21T10:41:13;7.01;96.65
70928;SHT31;58587;53.034;18.576;2024-02-21T10:43:40;7.00;96.46
70928;SHT31;58587;53.034;18.576;2024-02-21T10:46:06;7.01;96.63
70928;SHT31;58587;53.034;18.576;2024-02-21T10:48:44;7.04;96.57
70928;SHT31;58587;53.034;18.576;2024-02-21T10:51:20;7.00;96.44
70928;SHT31;58587;53.034;18.576;2024-02-21T10:54:23;7.06;96.67
70928;SHT31;58587;53.034;18.576;2024-02-21T10:56:53;7.06;96.78
70928;SHT31;58587;53.034;18.576;2024-02-21T10:59:22;7.04;96.67
70928;SHT31;58587;53.034;18.576;2024-02-21T11:01:48;7.03;96.64
70928;SHT31;58587;53.034;18.576;2024-02-21T11:04:14;7.11;96.67
70928;SHT31;58587;53.034;18.576;2024-02-21T11:06:40;7.11;96.63
70928;SHT31;58587;53.034;18.576;2024-02-21T11:09:07;7.17;96.52
70928;SHT31;58587;53.034;18.576;2024-02-21T11:11:34;7.16;96.57
70928;SHT31;58587;53.034;18.576;2024-02-21T11:14:19;7.11;96.55
70928;SHT31;58587;53.034;18.576;2024-02-21T11:16:45;7.13;96.65
70928;SHT31;58587;53.034;18.576;2024-02-21T11:19:25;7.11;96.54
70928;SHT31;58587;53.034;18.576;2024-02-21T11:21:52;7.14;96.73
70928;SHT31;58587;53.034;18.576;2024-02-21T11:26:54;7.16;96.72
70928;SHT31;58587;53.034;18.576;2024-02-21T11:29:25;7.20;96.81
70928;SHT31;58587;53.034;18.576;2024-02-21T11:31:51;7.21;96.70
70928;SHT31;58587;53.034;18.576;2024-02-21T11:34:18;7.21;96.66
70928;SHT31;58587;53.034;18.576;2024-02-21T11:36:51;7.16;96.60
70928;SHT31;58587;53.034;18.576;2024-02-21T11:39:24;7.23;96.39
70928;SHT31;58587;53.034;18.576;2024-02-21T11:42:06;7.21;96.46
70928;SHT31;58587;53.034;18.576;2024-02-21T11:44:33;7.23;96.44
70928;SHT31;58587;53.034;18.576;2024-02-21T11:46:59;7.30;96.29
70928;SHT31;58587;53.034;18.576;2024-02-21T11:49:25;7.28;96.12
70928;SHT31;58587;53.034;18.576;2024-02-21T11:52:01;7.32;96.24
70928;SHT31;58587;53.034;18.576;2024-02-21T11:54:32;7.35;96.37
70928;SHT31;58587;53.034;18.576;2024-02-21T11:56:58;7.28;96.51
70928;SHT31;58587;53.034;18.576;2024-02-21T11:59:23;7.27;96.73
70928;SHT31;58587;53.034;18.576;2024-02-21T12:01:49;7.35;96.86
70928;SHT31;58587;53.034;18.576;2024-02-21T12:04:17;7.34;96.69
70928;SHT31;58587;53.034;18.576;2024-02-21T12:06:45;7.35;96.48
70928;SHT31;58587;53.034;18.576;2024-02-21T12:09:14;7.38;96.69
70928;SHT31;58587;53.034;18.576;2024-02-21T12:11:39;7.38;96.70
70928;SHT31;58587;53.034;18.576;2024-02-21T12:14:05;7.44;96.66
70928;SHT31;58587;53.034;18.576;2024-02-21T12:16:33;7.38;96.60
70928;SHT31;58587;53.034;18.576;2024-02-21T12:19:00;7.44;96.56
70928;SHT31;58587;53.034;18.576;2024-02-21T12:21:32;7.46;96.42
70928;SHT31;58587;53.034;18.576;2024-02-21T12:23:58;7.38;96.14
70928;SHT31;58587;53.034;18.576;2024-02-21T12:26:24;7.38;96.16
70928;SHT31;58587;53.034;18.576;2024-02-21T12:28:51;7.38;96.09
70928;SHT31;58587;53.034;18.576;2024-02-21T12:31:16;7.40;96.29
70928;SHT31;58587;53.034;18.576;2024-02-21T12:33:42;7.40;96.25
70928;SHT31;58587;53.034;18.576;2024-02-21T12:36:08;7.44;96.36
70928;SHT31;58587;53.034;18.576;2024-02-21T12:38:34;7.44;95.90
70928;SHT31;58587;53.034;18.576;2024-02-21T12:41:00;7.44;95.77
70928;SHT31;58587;53.034;18.576;2024-02-21T12:43:26;7.46;95.91
70928;SHT31;58587;53.034;18.576;2024-02-21T12:45:51;7.43;96.04
70928;SHT31;58587;53.034;18.576;2024-02-21T12:48:16;7.40;96.31
70928;SHT31;58587;53.034;18.576;2024-02-21T12:50:49;7.44;96.17
70928;SHT31;58587;53.034;18.576;2024-02-21T12:53:19;7.41;96.08
70928;SHT31;58587;53.034;18.576;2024-02-21T12:55:49;7.44;95.98
70928;SHT31;58587;53.034;18.576;2024-02-21T12:58:14;7.47;95.96
70928;SHT31;58587;53.034;18.576;2024-02-21T13:00:40;7.44;96.02
70928;SHT31;58587;53.034;18.576;2024-02-21T13:03:06;7.43;96.15
70928;SHT31;58587;53.034;18.576;2024-02-21T13:05:32;7.44;96.09
70928;SHT31;58587;53.034;18.576;2024-02-21T13:08:00;7.46;95.95
70928;SHT31;58587;53.034;18.576;2024-02-21T13:10:26;7.48;96.05
70928;SHT31;58587;53.034;18.576;2024-02-21T13:12:51;7.44;96.10
70928;SHT31;58587;53.034;18.576;2024-02-21T13:15:17;7.43;96.12
70928;SHT31;58587;53.034;18.576;2024-02-21T13:17:45;7.41;96.08
70928;SHT31;58587;53.034;18.576;2024-02-21T13:20:11;7.44;96.12
70928;SHT31;58587;53.034;18.576;2024-02-21T13:22:37;7.44;96.16
70928;SHT31;58587;53.034;18.576;2024-02-21T13:25:03;7.46;96.00
70928;SHT31;58587;53.034;18.576;2024-02-21T13:27:28;7.46;95.78
70928;SHT31;58587;53.034;18.576;2024-02-21T13:29:54;7.44;95.95
70928;SHT31;58587;53.034;18.576;2024-02-21T13:32:19;7.41;96.19
70928;SHT31;58587;53.034;18.576;2024-02-21T13:34:45;7.38;96.19
70928;SHT31;58587;53.034;18.576;2024-02-21T13:37:10;7.40;96.27
70928;SHT31;58587;53.034;18.576;2024-02-21T13:39:36;7.43;96.23
70928;SHT31;58587;53.034;18.576;2024-02-21T13:42:02;7.41;96.49
70928;SHT31;58587;53.034;18.576;2024-02-21T13:44:30;7.46;96.64
70928;SHT31;58587;53.034;18.576;2024-02-21T13:46:56;7.47;96.78
70928;SHT31;58587;53.034;18.576;2024-02-21T13:49:21;7.44;96.81
70928;SHT31;58587;53.034;18.576;2024-02-21T13:51:47;7.43;97.01
70928;SHT31;58587;53.034;18.576;2024-02-21T13:54:12;7.46;97.05
70928;SHT31;58587;53.034;18.576;2024-02-21T13:56:41;7.47;97.12
70928;SHT31;58587;53.034;18.576;2024-02-21T13:59:07;7.44;97.26
70928;SHT31;58587;53.034;18.576;2024-02-21T14:01:33;7.46;97.30
70928;SHT31;58587;53.034;18.576;2024-02-21T14:03:58;7.46;97.46
70928;SHT31;58587;53.034;18.576;2024-02-21T14:06:24;7.44;97.32
70928;SHT31;58587;53.034;18.576;2024-02-21T14:08:49;7.46;97.23
70928;SHT31;58587;53.034;18.576;2024-02-21T14:11:15;7.43;97.20
70928;SHT31;58587;53.034;18.576;2024-02-21T14:13:40;7.44;97.37
70928;SHT31;58587;53.034;18.576;2024-02-21T14:16:09;7.47;97.30
70928;SHT31;58587;53.034;18.576;2024-02-21T14:18:41;7.48;97.25
70928;SHT31;58587;53.034;18.576;2024-02-21T14:21:08;7.47;97.26
70928;SHT31;58587;53.034;18.576;2024-02-21T14:23:36;7.48;97.10
70928;SHT31;58587;53.034;18.576;2024-02-21T14:26:02;7.47;97.25
70928;SHT31;58587;53.034;18.576;2024-02-21T14:28:28;7.46;97.15
70928;SHT31;58587;53.034;18.576;2024-02-21T14:30:54;7.47;97.21
70928;SHT31;58587;53.034;18.576;2024-02-21T14:33:23;7.46;97.35
70928;SHT31;58587;53.034;18.576;2024-02-21T14:35:48;7.38;97.41
70928;SHT31;58587;53.034;18.576;2024-02-21T14:38:14;7.46;97.51
70928;SHT31;58587;53.034;18.576;2024-02-21T14:40:39;7.46;97.53
70928;SHT31;58587;53.034;18.576;2024-02-21T14:43:04;7.47;97.55
70928;SHT31;58587;53.034;18.576;2024-02-21T14:45:30;7.48;97.58
70928;SHT31;58587;53.034;18.576;2024-02-21T14:47:55;7.50;97.57
70928;SHT31;58587;53.034;18.576;2024-02-21T14:50:20;7.47;97.60
70928;SHT31;58587;53.034;18.576;2024-02-21T14:52:46;7.47;97.56
70928;SHT31;58587;53.034;18.576;2024-02-21T14:55:13;7.50;97.50
70928;SHT31;58587;53.034;18.576;2024-02-21T14:57:39;7.44;97.63
70928;SHT31;58587;53.034;18.576;2024-02-21T15:00:07;7.48;97.65
70928;SHT31;58587;53.034;18.576;2024-02-21T15:02:33;7.47;97.71
70928;SHT31;58587;53.034;18.576;2024-02-21T15:05:00;7.40;97.75
70928;SHT31;58587;53.034;18.576;2024-02-21T15:07:25;7.44;97.79
70928;SHT31;58587;53.034;18.576;2024-02-21T15:09:51;7.48;97.79
70928;SHT31;58587;53.034;18.576;2024-02-21T15:12:17;7.46;97.67
70928;SHT31;58587;53.034;18.576;2024-02-21T15:14:42;7.44;97.74
70928;SHT31;58587;53.034;18.576;2024-02-21T15:17:10;7.41;97.66
70928;SHT31;58587;53.034;18.576;2024-02-21T15:19:35;7.47;97.67
70928;SHT31;58587;53.034;18.576;2024-02-21T15:22:02;7.48;97.56
70928;SHT31;58587;53.034;18.576;2024-02-21T15:24:28;7.48;97.45
70928;SHT31;58587;53.034;18.576;2024-02-21T15:26:53;7.50;97.21
70928;SHT31;58587;53.034;18.576;2024-02-21T15:29:18;7.48;97.31
70928;SHT31;58587;53.034;18.576;2024-02-21T15:31:45;7.44;97.29